Frankfort, KY (40601)

7:12 PM EDT on June 29, 2015 (GMT -0400)
The Cottages of Frankfort | | Change Station
CLOSE
Current Station
Personal Weather Station
Location: Frankfort, KY
Elevation: 755 ft
Nearby Weather Stations
Active Advisory: Tornado Watch

Elev 755 ft 38.16 °N, 84.92 °W | Updated 2 minutes ago

Light Thunderstorms and Rain
Light Thunderstorm Rain
72.0 °F
Feels Like 71 °F
N
2.7
Wind Variable Wind from SSW

Today
High -- | Low -- °F
--% Chance of Precip.
Yesterday
High -- | Low -- °F
Precip. -- in
6:19 AM 9:07 PM
Waxing Gibbous, 95% visible
Pressure 29.78 in
Visibility 9.0 miles
Clouds Few 1800 ft
Scattered Clouds 4100 ft
Mostly Cloudy 5500 ft
Heat Index 71 °F
Dew Point 68 °F
Humidity 86%
Rainfall 0.23 in
Snow Depth Not available.
UV 1 out of 12
Pollen 3.20 out of 12
Air Quality Not available.
Flu Activity No Activity
METAR KFFT 292253Z AUTO 19008KT 9SM -TSRA FEW018 SCT041 BKN055 24/20 A2980 RMK AO2 LTG DSNT S RAB51 TSB30 SLP084 P0000 T02390200

More Conditions Fewer Conditions

Pressure 29.78 in
Visibility 9.0 miles
Clouds Few 1800 ft
Scattered Clouds 4100 ft
Mostly Cloudy 5500 ft
Heat Index 71 °F
Dew Point 68 °F
Humidity 86%
Rainfall 0.23 in
Snow Depth Not available.
UV 1 out of 12
Pollen 3.20 out of 12
Air Quality Not available.
Flu Activity No Activity
METAR KFFT 292253Z AUTO 19008KT 9SM -TSRA FEW018 SCT041 BKN055 24/20 A2980 RMK AO2 LTG DSNT S RAB51 TSB30 SLP084 P0000 T02390200

More Conditions Fewer Conditions

10-Day Weather Forecast

×

Almanac

Astronomy

Jun. 29, 2015 Rise Set
Actual Time
Civil Twilight
Nautical Twilight
Astronomical Twilight
Moon
Length of Visible Light
Length of Day
Tomorrow will be .
, % of the Moon is Illuminated

Today's Extremes

State Highs State Lows

Community

WunderPhotos

Upload Photos

1,833,876 photos uploaded!

WunderBlogs® & News

Nearby

Air Quality

  Air Quality AQ Index Pollutant
Not available.

Snow Depth

Station Depth Elevation

Earthquake Activity

City Distance Mag. Time & Date
Minimum magnitude displayed is 2.5.

Coastal Water Temperatures

Place Temperature

Stations

Nearby Weather Stations

Station Location Temp. Windchill Dew Point Humidity Wind Precip. Elev Updated Type
                   
Tornado Watch
Statement as of 7:03 PM EDT on June 29, 2015

Tornado Watch 369 remains in effect until 900 PM EDT for the
following locations


KY
. Kentucky counties included are

Adair Allen Anderson
Barren Bath Bell
Boone Bourbon Boyd
Boyle Bracken Breathitt
Campbell Carroll Carter
Casey Clark Clay
Clinton Cumberland Edmonson
Elliott Estill Fayette
Fleming Franklin Gallatin
Garrard Grant green
Greenup Harrison Hart
Henry Jackson Jessamine
Johnson Kenton Knox
LaRue Laurel Lawrence
Lee Lewis Lincoln
McCreary Madison Magoffin
Marion Martin Mason
Menifee Mercer Metcalfe
Monroe Montgomery Morgan
Nelson Nicholas Owen
Owsley Pendleton Powell
Pulaski Robertson Rockcastle
Rowan Russell Scott
Shelby Simpson Spencer
Taylor Warren Washington
Wayne Whitley Wolfe
Woodford